createdAt,value
2022-10-13T00:00:11.608Z,3.37
2022-10-13T00:02:47.024Z,3.20
2022-10-13T00:05:20.116Z,3.10
2022-10-13T00:07:52.878Z,3.20
2022-10-13T00:10:26.391Z,3.43
2022-10-13T00:12:59.252Z,3.30
2022-10-13T00:15:32.196Z,3.20
2022-10-13T00:18:05.013Z,3.50
2022-10-13T00:20:42.689Z,3.50
2022-10-13T00:23:16.361Z,3.50
2022-10-13T00:25:50.162Z,3.57
2022-10-13T00:28:22.976Z,3.60
2022-10-13T00:30:55.891Z,3.90
2022-10-13T00:33:28.868Z,3.90
2022-10-13T00:36:01.647Z,3.67
2022-10-13T00:38:34.580Z,3.77
2022-10-13T00:41:07.801Z,4.17
2022-10-13T00:44:03.554Z,3.93
2022-10-13T00:46:37.276Z,3.43
2022-10-13T00:49:13.145Z,4.10
2022-10-13T00:51:50.773Z,4.20
2022-10-13T00:54:24.866Z,3.93
2022-10-13T00:56:57.884Z,5.68
2022-10-13T00:59:31.062Z,6.13
2022-10-13T01:02:04.406Z,4.50
2022-10-13T01:04:42.090Z,5.60
2022-10-13T01:07:19.718Z,6.20
2022-10-13T01:09:52.955Z,4.67
2022-10-13T01:12:49.938Z,3.93
2022-10-13T01:15:48.226Z,3.70
2022-10-13T01:18:46.704Z,3.23
2022-10-13T01:21:45.068Z,3.30
2022-10-13T01:24:42.836Z,4.20
2022-10-13T01:27:33.806Z,4.70
2022-10-13T01:30:21.693Z,6.50
2022-10-13T01:33:19.652Z,6.10
2022-10-13T01:36:11.428Z,6.37
2022-10-13T01:38:51.606Z,6.53
2022-10-13T01:41:43.976Z,6.43
2022-10-13T01:44:40.067Z,5.30
2022-10-13T01:47:15.969Z,5.80
2022-10-13T01:49:52.102Z,5.93
2022-10-13T01:52:30.973Z,5.60
2022-10-13T01:55:11.084Z,4.23
2022-10-13T01:57:45.901Z,5.38
2022-10-13T02:00:21.204Z,5.87
2022-10-13T02:03:12.140Z,6.53
2022-10-13T02:06:04.317Z,6.47
2022-10-13T02:08:45.997Z,9.13
2022-10-13T02:11:21.408Z,6.83
2022-10-13T02:14:05.049Z,7.10
2022-10-13T02:16:41.777Z,6.67
2022-10-13T02:19:17.185Z,7.33
2022-10-13T02:21:51.916Z,7.50
2022-10-13T02:24:24.980Z,7.37
2022-10-13T02:26:57.872Z,7.00
2022-10-13T02:29:30.753Z,7.90
2022-10-13T02:32:03.557Z,7.97
2022-10-13T02:34:36.365Z,7.77
2022-10-13T02:37:09.339Z,7.13
2022-10-13T02:39:42.215Z,6.77
2022-10-13T02:42:17.881Z,7.67
2022-10-13T02:44:51.136Z,6.90
2022-10-13T02:47:24.020Z,6.83
2022-10-13T02:49:57.736Z,6.47
2022-10-13T02:52:30.821Z,5.87
2022-10-13T02:55:04.371Z,5.83
2022-10-13T02:57:37.154Z,6.53
2022-10-13T03:00:10.572Z,5.70
2022-10-13T03:02:43.410Z,5.90
2022-10-13T03:05:17.053Z,6.27
2022-10-13T03:07:49.929Z,7.53
2022-10-13T03:10:22.769Z,5.60
2022-10-13T03:12:58.523Z,6.27
2022-10-13T03:15:31.244Z,6.67
2022-10-13T03:18:05.243Z,5.83
2022-10-13T03:20:38.099Z,7.43
2022-10-13T03:23:11.288Z,7.17
2022-10-13T03:25:44.125Z,7.30
2022-10-13T03:28:17.134Z,7.30
2022-10-13T03:31:04.706Z,7.57
2022-10-13T03:33:37.511Z,8.03
2022-10-13T03:36:11.944Z,8.47
2022-10-13T03:38:46.077Z,8.20
2022-10-13T03:41:19.164Z,7.83
2022-10-13T03:43:56.013Z,8.43
2022-10-13T03:46:30.535Z,10.20
2022-10-13T03:49:04.190Z,10.27
2022-10-13T03:51:36.945Z,10.07
2022-10-13T03:54:12.665Z,10.07
2022-10-13T03:56:46.508Z,11.33
2022-10-13T03:59:19.385Z,10.80
2022-10-13T04:01:52.224Z,10.37
2022-10-13T04:04:25.009Z,11.37
2022-10-13T04:07:02.047Z,14.07
2022-10-13T04:09:35.081Z,11.07
2022-10-13T04:12:07.946Z,8.97
2022-10-13T04:14:40.733Z,9.23
2022-10-13T04:17:14.008Z,8.73
2022-10-13T04:19:46.868Z,9.10
2022-10-13T04:22:19.849Z,9.60
2022-10-13T04:24:53.932Z,9.37
2022-10-13T04:27:27.000Z,8.83
2022-10-13T04:30:00.031Z,11.55
2022-10-13T04:32:33.714Z,9.30
2022-10-13T04:35:13.042Z,9.67
2022-10-13T04:37:54.147Z,8.88
2022-10-13T04:40:27.712Z,11.23
2022-10-13T04:43:01.869Z,10.07
2022-10-13T04:45:42.433Z,11.13
2022-10-13T04:48:18.259Z,11.80
2022-10-13T04:51:03.101Z,10.90
2022-10-13T04:53:36.871Z,10.53
2022-10-13T04:56:17.596Z,10.80
2022-10-13T04:58:50.899Z,10.63
2022-10-13T05:01:24.861Z,10.40
2022-10-13T05:04:00.038Z,11.03
2022-10-13T05:06:35.751Z,10.67
2022-10-13T05:09:13.944Z,10.43
2022-10-13T05:11:46.881Z,10.40
2022-10-13T05:14:19.777Z,9.90
2022-10-13T05:16:52.498Z,10.07
2022-10-13T05:19:25.386Z,10.83
2022-10-13T05:21:58.366Z,10.47
2022-10-13T05:24:36.381Z,9.87
2022-10-13T05:27:11.362Z,10.27
2022-10-13T05:29:44.084Z,11.00
2022-10-13T05:32:17.102Z,10.87
2022-10-13T05:34:50.393Z,10.23
2022-10-13T05:37:23.181Z,10.67
2022-10-13T05:39:56.034Z,11.50
2022-10-13T05:42:30.004Z,10.30
2022-10-13T05:45:03.405Z,10.90
2022-10-13T05:47:36.465Z,10.63
2022-10-13T05:50:09.458Z,11.10
2022-10-13T05:52:45.051Z,11.00
2022-10-13T05:55:19.117Z,10.97
2022-10-13T05:57:52.757Z,13.10
2022-10-13T06:00:25.625Z,10.90
2022-10-13T06:03:14.226Z,11.83
2022-10-13T06:05:49.473Z,10.40
2022-10-13T06:08:22.158Z,11.40
2022-10-13T06:10:57.847Z,10.43
2022-10-13T06:13:31.182Z,11.53
2022-10-13T06:16:04.283Z,10.13
2022-10-13T06:18:37.057Z,9.90
2022-10-13T06:21:09.863Z,10.87
2022-10-13T06:23:42.537Z,10.57
2022-10-13T06:26:15.213Z,10.37
2022-10-13T06:28:51.088Z,10.40
2022-10-13T06:31:28.058Z,10.03
2022-10-13T06:34:00.755Z,10.70
2022-10-13T06:36:33.550Z,11.23
2022-10-13T06:39:06.216Z,11.57
2022-10-13T06:41:39.061Z,11.77
2022-10-13T06:44:11.864Z,10.63
2022-10-13T06:46:44.680Z,11.77
2022-10-13T06:49:17.849Z,11.37
2022-10-13T06:51:50.840Z,10.93
2022-10-13T06:54:23.584Z,10.83
2022-10-13T06:56:56.503Z,11.77
2022-10-13T06:59:29.289Z,14.52
2022-10-13T07:02:01.998Z,10.83
2022-10-13T07:04:34.764Z,11.43
2022-10-13T07:07:07.553Z,11.03
2022-10-13T07:09:40.788Z,10.77
2022-10-13T07:12:14.378Z,10.97
2022-10-13T07:14:47.601Z,11.13
2022-10-13T07:17:20.743Z,12.17
2022-10-13T07:19:57.745Z,12.57
2022-10-13T07:22:31.884Z,11.70
2022-10-13T07:25:04.914Z,12.33
2022-10-13T07:27:40.131Z,12.57
2022-10-13T07:30:13.077Z,11.83
2022-10-13T07:32:46.393Z,11.83
2022-10-13T07:35:19.777Z,11.37
2022-10-13T07:37:53.971Z,11.20
2022-10-13T07:40:26.791Z,11.60
2022-10-13T07:42:59.954Z,11.60
2022-10-13T07:45:32.672Z,11.37
2022-10-13T07:48:05.529Z,15.55
2022-10-13T07:50:38.236Z,12.87
2022-10-13T07:53:11.022Z,12.07
2022-10-13T07:55:43.735Z,11.20
2022-10-13T07:58:16.503Z,15.43
2022-10-13T08:00:56.846Z,12.33
2022-10-13T08:03:32.590Z,12.87
2022-10-13T08:06:07.143Z,12.10
2022-10-13T08:08:40.697Z,13.00
2022-10-13T08:11:17.974Z,12.27
2022-10-13T08:13:52.025Z,12.77
2022-10-13T08:16:28.473Z,11.93
2022-10-13T08:19:01.444Z,12.43
2022-10-13T08:24:28.779Z,13.30
2022-10-13T08:27:01.918Z,13.10
2022-10-13T08:29:35.035Z,12.50
2022-10-13T08:32:07.931Z,12.53
2022-10-13T08:34:40.896Z,12.50
2022-10-13T08:37:14.802Z,11.87
2022-10-13T08:39:47.957Z,12.20
2022-10-13T08:42:22.391Z,12.73
2022-10-13T08:45:28.771Z,12.27
2022-10-13T08:48:01.229Z,11.77
2022-10-13T08:50:35.902Z,12.27
2022-10-13T08:53:13.937Z,11.77
2022-10-13T08:55:53.277Z,12.33
2022-10-13T08:58:31.480Z,15.65
2022-10-13T09:01:07.653Z,13.27
2022-10-13T09:03:49.853Z,13.63
2022-10-13T09:06:28.773Z,11.70
2022-10-13T09:09:03.726Z,11.67
2022-10-13T09:11:40.545Z,11.70
2022-10-13T09:14:24.896Z,11.23
2022-10-13T09:20:06.943Z,11.80
2022-10-13T09:22:40.909Z,10.87
2022-10-13T09:25:22.097Z,11.10
2022-10-13T09:27:55.151Z,12.13
2022-10-13T09:30:51.770Z,11.43
2022-10-13T09:33:26.915Z,10.93
2022-10-13T09:36:00.380Z,11.60
2022-10-13T09:38:35.167Z,12.67
2022-10-13T09:41:19.731Z,12.17
2022-10-13T09:43:56.374Z,15.40
2022-10-13T09:46:46.543Z,15.90
2022-10-13T09:49:30.471Z,15.10
2022-10-13T09:52:12.187Z,14.83
2022-10-13T09:54:52.711Z,18.23
2022-10-13T09:57:40.346Z,13.10
2022-10-13T10:00:26.089Z,12.57
2022-10-13T10:03:11.412Z,11.93
2022-10-13T10:05:59.717Z,11.37
2022-10-13T10:09:02.860Z,15.33
2022-10-13T10:11:50.148Z,9.53
2022-10-13T10:14:29.581Z,9.30
2022-10-13T10:17:50.691Z,9.13
2022-10-13T10:20:57.527Z,8.37
2022-10-13T10:23:52.698Z,8.83
2022-10-13T10:26:43.594Z,9.17
2022-10-13T10:29:24.274Z,9.43
2022-10-13T10:32:06.604Z,9.60
2022-10-13T10:34:44.254Z,9.40
2022-10-13T10:37:51.002Z,8.83
2022-10-13T10:40:30.765Z,9.27
2022-10-13T10:43:17.593Z,12.05
2022-10-13T10:45:53.071Z,9.33
2022-10-13T10:48:38.641Z,9.20
2022-10-13T10:51:14.382Z,9.30
2022-10-13T10:54:24.110Z,17.57
2022-10-13T10:57:19.648Z,9.67
2022-10-13T10:59:59.832Z,9.57
2022-10-13T11:02:37.395Z,8.97
2022-10-13T11:05:10.474Z,9.47
2022-10-13T11:07:43.613Z,8.57
2022-10-13T11:10:21.247Z,8.63
2022-10-13T11:12:54.791Z,8.77
2022-10-13T11:15:42.707Z,8.70
2022-10-13T11:18:52.981Z,8.20
2022-10-13T11:21:26.679Z,8.17
2022-10-13T11:24:02.237Z,8.27
2022-10-13T11:26:43.827Z,8.30
2022-10-13T11:29:19.923Z,8.50
2022-10-13T11:31:54.617Z,8.70
2022-10-13T11:34:33.418Z,10.07
2022-10-13T11:37:17.147Z,8.67
2022-10-13T11:40:01.909Z,8.90
2022-10-13T11:42:58.467Z,8.80
2022-10-13T11:45:41.811Z,8.83
2022-10-13T11:48:14.948Z,8.30
2022-10-13T11:50:48.385Z,8.33
2022-10-13T11:53:21.523Z,8.67
2022-10-13T11:55:57.344Z,8.17
2022-10-13T11:58:34.154Z,8.13
2022-10-13T12:01:12.943Z,7.33
2022-10-13T12:03:46.730Z,8.17
2022-10-13T12:06:32.088Z,7.73
2022-10-13T12:09:07.971Z,7.40
2022-10-13T12:11:40.896Z,7.57
2022-10-13T12:14:21.518Z,8.07
2022-10-13T12:16:59.000Z,7.50
2022-10-13T12:19:33.293Z,6.50
2022-10-13T12:22:12.593Z,4.93
2022-10-13T12:24:58.674Z,6.07
2022-10-13T12:27:33.020Z,5.10
2022-10-13T12:30:20.242Z,6.23
2022-10-13T12:32:55.149Z,5.60
2022-10-13T12:35:28.487Z,4.90
2022-10-13T12:38:03.082Z,5.53
2022-10-13T12:40:37.680Z,5.17
2022-10-13T12:43:12.465Z,5.40
2022-10-13T12:45:45.641Z,5.43
2022-10-13T12:48:35.214Z,5.90
2022-10-13T12:51:10.061Z,4.77
2022-10-13T12:53:44.445Z,5.53
2022-10-13T12:56:28.503Z,5.30
2022-10-13T12:59:02.010Z,5.60
2022-10-13T13:01:35.714Z,5.47
2022-10-13T13:04:19.886Z,5.20
2022-10-13T13:07:00.882Z,4.97
2022-10-13T13:09:34.753Z,5.50
2022-10-13T13:12:11.393Z,5.07
2022-10-13T13:14:48.324Z,5.30
2022-10-13T13:17:45.281Z,5.13
2022-10-13T13:20:21.604Z,5.30
2022-10-13T13:22:54.949Z,5.13
2022-10-13T13:25:28.919Z,5.93
2022-10-13T13:28:04.625Z,5.33
2022-10-13T13:30:37.611Z,4.73
2022-10-13T13:35:44.516Z,4.90
2022-10-13T13:38:17.474Z,5.20
2022-10-13T13:40:50.394Z,5.60
2022-10-13T13:43:23.377Z,5.20
2022-10-13T13:45:56.490Z,5.10
2022-10-13T13:48:29.442Z,4.97
2022-10-13T13:51:03.887Z,5.30
2022-10-13T13:53:37.245Z,5.77
2022-10-13T13:56:20.400Z,5.80
2022-10-13T13:58:53.343Z,5.50
2022-10-13T14:01:26.580Z,5.23
2022-10-13T14:03:59.843Z,5.97
2022-10-13T14:06:33.005Z,6.00
2022-10-13T14:09:06.230Z,8.47
2022-10-13T14:11:39.203Z,7.57
2022-10-13T14:14:12.138Z,5.67
2022-10-13T14:16:45.067Z,5.90
2022-10-13T14:19:18.095Z,6.47
2022-10-13T14:21:51.060Z,7.95
2022-10-13T14:24:23.978Z,6.50
2022-10-13T14:26:56.968Z,6.10
2022-10-13T14:29:29.981Z,6.93
2022-10-13T14:32:03.245Z,6.53
2022-10-13T14:34:36.181Z,5.93
2022-10-13T14:37:09.124Z,5.70
2022-10-13T14:39:42.104Z,6.40
2022-10-13T14:42:15.124Z,6.00
2022-10-13T14:44:48.178Z,6.80
2022-10-13T14:47:21.397Z,5.60
2022-10-13T14:49:54.514Z,4.40
2022-10-13T14:52:27.435Z,4.50
2022-10-13T14:55:00.445Z,4.40
2022-10-13T14:57:33.482Z,5.20
2022-10-13T15:00:06.762Z,5.23
2022-10-13T15:02:39.845Z,4.90
2022-10-13T15:11:08.998Z,5.40
2022-10-13T15:13:42.003Z,4.87
2022-10-13T15:16:33.572Z,5.53
2022-10-13T15:19:06.471Z,6.32
2022-10-13T15:21:40.403Z,4.30
2022-10-13T15:24:13.342Z,4.33
2022-10-13T15:26:48.407Z,4.00
2022-10-13T15:29:47.282Z,4.33
2022-10-13T15:32:26.423Z,4.30
2022-10-13T15:35:00.806Z,4.33
2022-10-13T15:37:36.263Z,4.83
2022-10-13T15:40:09.630Z,4.27
2022-10-13T15:42:42.701Z,4.43
2022-10-13T15:45:46.467Z,4.93
2022-10-13T15:48:19.622Z,4.23
2022-10-13T15:50:52.845Z,4.57
2022-10-13T15:53:26.040Z,4.73
2022-10-13T15:56:02.368Z,4.73
2022-10-13T15:58:35.949Z,4.57
2022-10-13T16:01:09.784Z,4.23
2022-10-13T16:03:43.141Z,4.60
2022-10-13T16:06:16.336Z,4.60
2022-10-13T16:08:50.164Z,4.77
2022-10-13T16:11:23.962Z,4.53
2022-10-13T16:13:57.398Z,4.53
2022-10-13T16:16:31.223Z,4.17
2022-10-13T16:19:04.652Z,3.77
2022-10-13T16:21:37.639Z,4.50
2022-10-13T16:24:11.087Z,4.13
2022-10-13T16:26:44.398Z,4.03
2022-10-13T16:29:17.888Z,3.93
2022-10-13T16:31:51.681Z,3.87
2022-10-13T16:34:24.995Z,3.80
2022-10-13T16:36:58.858Z,3.90
2022-10-13T16:39:32.942Z,3.73
2022-10-13T16:42:06.475Z,3.87
2022-10-13T16:44:39.825Z,3.73
2022-10-13T16:47:18.027Z,4.03
2022-10-13T16:49:52.197Z,3.47
2022-10-13T16:52:25.896Z,3.70
2022-10-13T16:54:59.996Z,3.10
2022-10-13T16:57:34.135Z,3.10
2022-10-13T17:00:08.879Z,2.83
2022-10-13T17:02:42.787Z,2.73
2022-10-13T17:05:16.047Z,3.70
2022-10-13T17:07:49.024Z,2.73
2022-10-13T17:10:22.473Z,3.47
2022-10-13T17:12:56.191Z,2.97
2022-10-13T17:15:30.495Z,2.60
2022-10-13T17:18:04.470Z,2.60
2022-10-13T17:20:37.719Z,2.70
2022-10-13T17:23:11.056Z,2.50
2022-10-13T17:25:44.258Z,2.43
2022-10-13T17:28:17.861Z,2.30
2022-10-13T17:31:05.647Z,2.57
2022-10-13T17:33:39.358Z,2.50
2022-10-13T17:36:12.376Z,2.40
2022-10-13T17:38:46.332Z,2.60
2022-10-13T17:41:20.917Z,2.23
2022-10-13T17:43:54.908Z,2.50
2022-10-13T17:46:38.782Z,2.20
2022-10-13T17:49:13.829Z,2.40
2022-10-13T17:51:47.084Z,2.53
2022-10-13T17:54:20.795Z,2.57
2022-10-13T17:56:56.917Z,2.40
2022-10-13T17:59:30.282Z,2.70
2022-10-13T18:02:03.479Z,3.17
2022-10-13T18:04:37.020Z,2.43
2022-10-13T18:07:10.647Z,2.23
2022-10-13T18:09:44.753Z,2.30
2022-10-13T18:12:18.525Z,2.37
2022-10-13T18:14:52.416Z,2.70
2022-10-13T18:17:26.270Z,2.27
2022-10-13T18:19:59.762Z,2.47
2022-10-13T18:22:32.991Z,2.53
2022-10-13T18:25:06.750Z,2.70
2022-10-13T18:27:40.056Z,2.43
2022-10-13T18:30:13.392Z,2.23
2022-10-13T18:32:46.332Z,2.40
2022-10-13T18:35:20.466Z,2.30
2022-10-13T18:37:53.601Z,2.20
2022-10-13T18:40:28.430Z,2.20
2022-10-13T18:43:02.144Z,2.33
2022-10-13T18:45:35.934Z,2.30
2022-10-13T18:48:09.144Z,2.40
2022-10-13T18:50:42.775Z,2.17
2022-10-13T18:53:15.735Z,1.90
2022-10-13T18:55:48.710Z,1.90
2022-10-13T18:58:21.752Z,2.50
2022-10-13T19:00:59.087Z,2.10
2022-10-13T19:03:32.866Z,2.13
2022-10-13T19:06:07.127Z,2.10
2022-10-13T19:08:40.553Z,2.20
2022-10-13T19:11:13.540Z,1.93
2022-10-13T19:13:46.878Z,2.00
2022-10-13T19:16:21.494Z,2.07
2022-10-13T19:18:54.448Z,2.00
2022-10-13T19:21:27.465Z,2.37
2022-10-13T19:24:00.718Z,2.00
2022-10-13T19:26:34.609Z,2.07
2022-10-13T19:29:09.338Z,1.93
2022-10-13T19:31:43.127Z,1.90
2022-10-13T19:34:16.055Z,2.17
2022-10-13T19:36:49.303Z,2.10
2022-10-13T19:39:23.769Z,2.30
2022-10-13T19:41:57.888Z,2.20
2022-10-13T19:44:31.038Z,2.40
2022-10-13T19:47:03.955Z,2.47
2022-10-13T19:49:37.172Z,2.77
2022-10-13T19:52:10.224Z,2.37
2022-10-13T19:54:46.050Z,2.43
2022-10-13T19:57:19.551Z,2.92
2022-10-13T19:59:52.634Z,2.43
2022-10-13T20:20:32.209Z,1.90
2022-10-13T20:23:09.522Z,2.17
2022-10-13T22:14:29.511Z,3.83
2022-10-13T22:17:02.550Z,4.20
2022-10-13T22:19:35.767Z,3.70
